Time;durP1;ratioP1;P1;durP2;ratioP2;P2;SDS_P1;SDS_P2;PMS_P1;PMS_P2;Temp;Humidity;BMP_temperature;BMP_pressure;BME280_temperature;BME280_humidity;BME280_pressure;Samples;Min_cycle;Max_cycle;Signal;HPM_P1;HPM_P2
2022/03/17 06:29:22;;;;;;;;;;;;;;;8.57;88.50;97516.59;4223032;27;10401;-64
2022/03/17 06:31:24;;;;;;;;;;;;;;;8.74;87.46;97516.47;4210278;28;5706;-63
2022/03/17 06:33:26;;;;;;;;;;;;;;;8.80;86.79;97517.59;4209453;28;5705;-64
2022/03/17 06:35:28;;;;;;;;;;;;;;;8.85;86.47;97527.69;4212225;28;5709;-65
2022/03/17 06:37:30;;;;;;;;;;;;;;;8.72;86.95;97534.25;4208729;28;5930;-64
2022/03/17 06:39:31;;;;;;;;;;;;;;;8.74;87.31;97534.91;4212389;28;5709;-64
2022/03/17 06:41:33;;;;;;;;;;;;;;;8.59;87.57;97533.88;4213252;28;5698;-63
2022/03/17 06:43:35;;;;;;;;;;;;;;;8.75;87.23;97535.75;4210595;28;5690;-64
2022/03/17 06:45:37;;;;;;;;;;;;;;;8.90;85.99;97533.25;4206378;28;5746;-64
2022/03/17 06:47:39;;;;;;;;;;;;;;;8.90;86.08;97535.91;4211738;28;5773;-64
2022/03/17 06:49:41;;;;;;;;;;;;;;;9.04;85.00;97529.97;4208291;28;5811;-61
2022/03/17 06:51:43;;;;;;;;;;;;;;;9.21;84.46;97539.53;4206552;28;5694;-62
2022/03/17 06:53:45;;;;;;;;;;;;;;;9.14;84.28;97535.91;4205005;28;6811;-61
2022/03/17 06:55:46;;;;;;;;;;;;;;;9.19;84.34;97538.06;4204089;28;5865;-62
2022/03/17 06:57:48;;;;;;;;;;;;;;;9.11;84.61;97536.25;4198044;28;5783;-61
2022/03/17 06:59:50;;;;;;;;;;;;;;;9.30;83.80;97537.72;4202009;28;5848;-63
2022/03/17 07:01:52;;;;;;;;;;;;;;;9.44;83.33;97536.19;4210873;28;5689;-63
2022/03/17 07:03:54;;;;;;;;;;;;;;;9.53;82.49;97541.31;4217235;28;5691;-63
2022/03/17 07:05:56;;;;;;;;;;;;;;;9.62;82.17;97542.91;4205593;28;5694;-63
2022/03/17 07:07:57;;;;;;;;;;;;;;;9.65;82.40;97539.13;4203490;28;5789;-62
2022/03/17 07:09:59;;;;;;;;;;;;;;;9.71;81.97;97545.53;4205922;28;5876;-62
2022/03/17 07:12:01;;;;;;;;;;;;;;;9.72;81.78;97542.72;4204041;28;5707;-62
2022/03/17 07:14:03;;;;;;;;;;;;;;;9.71;81.78;97543.72;4202115;28;5747;-62
2022/03/17 07:16:05;;;;;;;;;;;;;;;9.57;82.20;97547.88;4201885;28;5735;-62
2022/03/17 07:18:06;;;;;;;;;;;;;;;9.12;84.38;97553.72;4205078;28;5812;-62
2022/03/17 07:20:11;;;;;;;;;;;;;;;9.28;84.37;97544.94;4203511;28;6729;-69
2022/03/17 07:22:12;;;;;;;;;;;;;;;9.40;83.87;97550.72;4203297;28;5697;-64
2022/03/17 07:24:15;;;;;;;;;;;;;;;9.21;84.84;97549.25;4202698;28;5727;-63
2022/03/17 07:26:17;;;;;;;;;;;;;;;9.27;84.32;97552.03;4201849;28;5702;-70
2022/03/17 07:28:21;;;;;;;;;;;;;;;9.47;83.52;97549.88;4205889;28;5899;-68
2022/03/17 07:30:23;;;;;;;;;;;;;;;9.57;83.18;97549.69;4193291;28;5783;-64
2022/03/17 07:32:24;;;;;;;;;;;;;;;9.28;84.17;97551.03;4195196;28;6055;-65
2022/03/17 07:34:26;;;;;;;;;;;;;;;9.46;83.92;97547.41;4195220;28;5757;-65
2022/03/17 07:36:28;;;;;;;;;;;;;;;9.40;84.18;97548.91;4194182;28;5706;-65
2022/03/17 07:38:30;;;;;;;;;;;;;;;9.21;85.21;97550.09;4195077;28;5710;-63
2022/03/17 07:40:33;;;;;;;;;;;;;;;9.50;83.89;97546.91;4192696;28;5694;-65
2022/03/17 07:42:35;;;;;;;;;;;;;;;9.60;83.42;97554.63;4190513;28;5870;-70
2022/03/17 07:44:37;;;;;;;;;;;;;;;9.67;83.19;97552.97;4193074;28;5698;-62
2022/03/17 07:46:38;;;;;;;;;;;;;;;9.68;82.95;97554.63;4191620;28;5788;-70
2022/03/17 07:48:44;;;;;;;;;;;;;;;9.39;83.98;97549.88;4189383;28;5861;-64
2022/03/17 07:50:47;;;;;;;;;;;;;;;9.46;83.90;97550.88;4192224;28;5791;-73
2022/03/17 07:52:49;;;;;;;;;;;;;;;9.62;83.22;97550.00;4195506;28;5214;-73
2022/03/17 07:54:51;;;;;;;;;;;;;;;9.72;83.12;97550.66;4190045;28;5702;-72
2022/03/17 07:56:52;;;;;;;;;;;;;;;9.77;82.76;97550.97;4189337;28;5673;-74
2022/03/17 07:58:54;;;;;;;;;;;;;;;9.37;84.42;97553.69;4191232;28;6334;-65
2022/03/17 08:00:57;;;;;;;;;;;;;;;9.44;84.21;97557.31;4192129;28;5715;-62
2022/03/17 08:02:59;;;;;;;;;;;;;;;9.58;82.87;97556.63;4190704;28;5815;-63
2022/03/17 08:05:04;;;;;;;;;;;;;;;9.15;82.79;97556.00;4195057;28;5813;-63
2022/03/17 08:07:06;;;;;;;;;;;;;;;9.43;82.64;97553.03;4194500;28;5733;-63
2022/03/17 08:09:08;;;;;;;;;;;;;;;9.67;81.69;97558.25;4189182;28;5719;-63
2022/03/17 08:11:09;;;;;;;;;;;;;;;9.78;81.64;97543.88;4194097;28;5873;-63
2022/03/17 08:13:11;;;;;;;;;;;;;;;9.85;81.30;97550.97;4191304;28;5866;-63
2022/03/17 08:15:13;;;;;;;;;;;;;;;9.84;81.56;97557.22;4193024;28;5719;-63
2022/03/17 08:17:15;;;;;;;;;;;;;;;9.85;81.94;97555.38;4185965;28;5836;-63
2022/03/17 08:19:17;;;;;;;;;;;;;;;9.85;81.53;97556.25;4195467;28;5773;-62
2022/03/17 08:21:19;;;;;;;;;;;;;;;9.78;81.67;97555.25;4193649;28;5880;-66
2022/03/17 08:23:22;;;;;;;;;;;;;;;9.91;81.26;97560.00;4192193;28;5823;-65
2022/03/17 08:25:24;;;;;;;;;;;;;;;10.05;80.87;97567.22;4189416;28;5710;-65
2022/03/17 08:27:26;;;;;;;;;;;;;;;10.03;80.81;97568.38;4187115;28;5909;-62
2022/03/17 08:29:29;;;;;;;;;;;;;;;9.87;81.72;97564.00;4190401;28;5986;-60
2022/03/17 08:31:31;;;;;;;;;;;;;;;10.03;81.05;97563.94;4190228;28;5877;-67
2022/03/17 08:33:34;;;;;;;;;;;;;;;10.12;80.84;97568.19;4192299;28;5694;-63
2022/03/17 08:35:36;;;;;;;;;;;;;;;10.23;80.16;97564.38;4194013;28;5784;-63
2022/03/17 08:37:39;;;;;;;;;;;;;;;10.22;79.90;97568.03;4194809;28;5812;-64
2022/03/17 08:39:41;;;;;;;;;;;;;;;10.18;80.56;97578.06;4190815;28;6512;-64
2022/03/17 08:41:43;;;;;;;;;;;;;;;10.23;80.34;97572.31;4192316;28;5694;-64
2022/03/17 08:43:44;;;;;;;;;;;;;;;10.29;80.28;97562.84;4190008;28;6059;-64
2022/03/17 08:50:27;;;;;;;;;;;;;;;10.33;80.66;97565.00;4185656;28;5723;-69
2022/03/17 08:52:30;;;;;;;;;;;;;;;10.35;80.70;97565.66;4190967;28;5941;-62
2022/03/17 08:54:36;;;;;;;;;;;;;;;10.40;80.05;97573.03;4186720;28;5719;-81
2022/03/17 08:56:38;;;;;;;;;;;;;;;10.37;80.61;97562.81;4191605;28;5776;-62
2022/03/17 08:58:40;;;;;;;;;;;;;;;10.43;80.92;97560.31;4192568;28;5767;-62
2022/03/17 09:00:43;;;;;;;;;;;;;;;10.07;82.00;97570.50;4190609;28;5994;-62
2022/03/17 09:02:48;;;;;;;;;;;;;;;10.05;82.41;97572.50;4193923;28;5733;-62
2022/03/17 09:04:50;;;;;;;;;;;;;;;10.34;81.21;97569.28;4191421;28;5131;-62
2022/03/17 09:06:52;;;;;;;;;;;;;;;10.26;81.75;97568.50;4195794;28;5785;-61
2022/03/17 09:08:54;;;;;;;;;;;;;;;10.48;80.83;97573.00;4192852;28;5878;-61
2022/03/17 09:10:56;;;;;;;;;;;;;;;10.51;80.50;97572.66;4190982;28;5773;-67
2022/03/17 09:13:05;;;;;;;;;;;;;;;10.59;80.40;97574.44;4192526;28;5817;-65
2022/03/17 09:15:09;;;;;;;;;;;;;;;10.58;80.60;97572.78;4189053;28;5785;-64
2022/03/17 09:17:11;;;;;;;;;;;;;;;10.59;80.21;97579.72;4191161;28;5135;-66
2022/03/17 09:19:13;;;;;;;;;;;;;;;10.63;79.96;97575.72;4190336;28;5864;-63
2022/03/17 09:21:17;;;;;;;;;;;;;;;10.66;79.84;97586.81;4192335;28;5800;-63
2022/03/17 09:23:19;;;;;;;;;;;;;;;10.65;79.93;97579.03;4191581;28;6650;-63
2022/03/17 09:25:28;;;;;;;;;;;;;;;10.74;79.57;97581.44;4194796;28;5749;-62
2022/03/17 09:27:30;;;;;;;;;;;;;;;10.80;79.17;97577.28;4197458;28;5760;-61
2022/03/17 09:29:32;;;;;;;;;;;;;;;10.72;79.26;97574.69;4197869;28;5714;-61
2022/03/17 09:31:33;;;;;;;;;;;;;;;10.60;79.45;97576.91;4196118;28;5792;-64
2022/03/17 09:33:35;;;;;;;;;;;;;;;10.59;79.42;97585.00;4198262;28;5706;-63
2022/03/17 09:35:42;;;;;;;;;;;;;;;10.78;79.39;97576.66;4195697;28;5901;-63
2022/03/17 09:37:44;;;;;;;;;;;;;;;10.89;78.97;97576.25;4199668;28;5690;-62
2022/03/17 09:39:45;;;;;;;;;;;;;;;10.93;78.89;97574.06;4196259;28;5698;-65
2022/03/17 09:41:47;;;;;;;;;;;;;;;10.70;79.61;97581.97;4198703;28;5111;-62
2022/03/17 09:43:50;;;;;;;;;;;;;;;10.46;80.27;97575.84;4199420;28;5773;-65
2022/03/17 09:45:53;;;;;;;;;;;;;;;10.80;79.39;97577.28;4189566;28;5928;-62
2022/03/17 09:47:55;;;;;;;;;;;;;;;11.00;79.07;97582.94;4187779;28;5840;-62
2022/03/17 09:49:59;;;;;;;;;;;;;;;11.05;78.41;97583.22;4193869;28;5742;-64
2022/03/17 09:52:05;;;;;;;;;;;;;;;11.11;78.43;97587.81;4194810;28;5714;-62
2022/03/17 09:54:06;;;;;;;;;;;;;;;11.16;78.47;97576.69;4192140;28;5715;-66
2022/03/17 09:56:08;;;;;;;;;;;;;;;11.18;78.22;97570.22;4190814;28;5796;-64
2022/03/17 09:58:11;;;;;;;;;;;;;;;11.15;78.46;97585.63;4191051;28;5773;-64
2022/03/17 10:00:15;;;;;;;;;;;;;;;11.24;77.99;97584.59;4190505;28;5813;-65
2022/03/17 10:02:17;;;;;;;;;;;;;;;11.25;78.28;97576.47;4197347;28;6058;-65
2022/03/17 10:04:19;;;;;;;;;;;;;;;11.35;78.42;97581.50;4191057;28;5813;-65
2022/03/17 10:06:23;;;;;;;;;;;;;;;11.29;78.35;97579.56;4196386;28;5698;-65
2022/03/17 10:08:25;;;;;;;;;;;;;;;11.21;78.82;97576.97;4185597;28;5798;-65
2022/03/17 10:10:37;;;;;;;;;;;;;;;11.28;78.77;97585.88;4190691;28;5785;-64
2022/03/17 10:12:39;;;;;;;;;;;;;;;11.42;78.21;97576.31;4196012;28;5936;-64
2022/03/17 10:14:58;;;;;;;;;;;;;;;11.51;78.04;97577.88;4194800;28;5753;-64
2022/03/17 10:17:04;;;;;;;;;;;;;;;11.62;77.07;97580.09;4188099;28;5913;-65
2022/03/17 10:19:12;;;;;;;;;;;;;;;11.61;76.42;97576.63;4184788;28;5881;-62
2022/03/17 10:21:26;;;;;;;;;;;;;;;11.72;75.75;97580.66;4194520;28;6017;-61
2022/03/17 10:23:28;;;;;;;;;;;;;;;11.64;75.47;97583.38;4186520;28;5801;-62
2022/03/17 10:25:31;;;;;;;;;;;;;;;11.30;76.46;97583.84;4184513;28;5754;-62
2022/03/17 10:27:41;;;;;;;;;;;;;;;11.59;75.99;97572.53;4194959;28;5761;-62
2022/03/17 10:30:00;;;;;;;;;;;;;;;11.66;75.46;97574.28;4196765;28;5687;-67
2022/03/17 10:32:14;;;;;;;;;;;;;;;11.64;75.42;97576.25;4196513;28;6072;-65
2022/03/17 10:34:17;;;;;;;;;;;;;;;11.69;75.64;97580.22;4196791;28;5845;-65
2022/03/17 10:36:22;;;;;;;;;;;;;;;11.69;74.74;97582.84;4196436;28;5797;-64
2022/03/17 10:38:25;;;;;;;;;;;;;;;11.71;74.34;97581.66;4196694;28;5798;-63
2022/03/17 10:40:31;;;;;;;;;;;;;;;11.65;74.25;97577.91;4194072;28;5717;-63
2022/03/17 10:42:33;;;;;;;;;;;;;;;11.60;73.89;97584.75;4197066;28;5804;-63
2022/03/17 10:44:39;;;;;;;;;;;;;;;11.61;73.90;97579.28;4190907;28;5722;-63
2022/03/17 10:46:55;;;;;;;;;;;;;;;11.60;74.29;97582.94;4186220;28;5765;-63
2022/03/17 10:48:59;;;;;;;;;;;;;;;11.47;74.10;97585.38;4193688;28;5871;-63
2022/03/17 10:51:01;;;;;;;;;;;;;;;11.60;74.08;97580.28;4196099;28;5801;-63
2022/03/17 10:53:03;;;;;;;;;;;;;;;11.62;74.17;97572.97;4196831;28;5208;-64
2022/03/17 10:55:08;;;;;;;;;;;;;;;11.70;74.07;97574.72;4195907;28;5698;-64
2022/03/17 10:57:11;;;;;;;;;;;;;;;11.61;73.54;97584.56;4197481;28;6668;-62
2022/03/17 10:59:17;;;;;;;;;;;;;;;11.50;73.87;97582.34;4192560;28;5718;-69
2022/03/17 11:01:39;;;;;;;;;;;;;;;11.51;73.90;97581.34;4190276;28;5865;-69
2022/03/17 11:03:43;;;;;;;;;;;;;;;11.51;73.86;97573.41;4190932;28;5798;-61
2022/03/17 11:05:45;;;;;;;;;;;;;;;11.22;75.23;97576.00;4192067;28;5709;-62
2022/03/17 11:07:47;;;;;;;;;;;;;;;11.37;74.83;97569.72;4198433;28;5690;-61
2022/03/17 11:09:49;;;;;;;;;;;;;;;11.26;75.34;97572.00;4195991;28;5786;-69
2022/03/17 11:11:51;;;;;;;;;;;;;;;11.34;75.50;97569.28;4198361;28;5836;-62
2022/03/17 11:13:56;;;;;;;;;;;;;;;11.55;74.62;97565.91;4199729;28;5781;-63
2022/03/17 11:16:07;;;;;;;;;;;;;;;11.55;73.96;97565.91;4185026;28;5766;-66
2022/03/17 11:18:18;;;;;;;;;;;;;;;11.52;74.43;97566.28;4196102;28;5911;-62
2022/03/17 11:20:23;;;;;;;;;;;;;;;11.55;74.86;97565.91;4199565;28;5820;-62
2022/03/17 11:22:29;;;;;;;;;;;;;;;11.55;74.68;97563.28;4199839;28;5809;-61
2022/03/17 11:24:31;;;;;;;;;;;;;;;11.64;74.51;97568.31;4190851;28;5775;-62
2022/03/17 11:26:44;;;;;;;;;;;;;;;11.63;74.56;97558.72;4199829;28;5696;-65
2022/03/17 11:28:48;;;;;;;;;;;;;;;11.57;74.71;97567.41;4201294;28;5702;-64
2022/03/17 11:30:50;;;;;;;;;;;;;;;11.44;74.75;97564.56;4195753;28;5714;-64
2022/03/17 11:32:58;;;;;;;;;;;;;;;11.18;75.72;97569.41;4198270;28;5717;-64
2022/03/17 11:35:17;;;;;;;;;;;;;;;11.26;75.54;97564.03;4191248;28;5786;-65
2022/03/17 11:37:19;;;;;;;;;;;;;;;11.52;74.73;97561.81;4196636;28;5784;-65
2022/03/17 11:39:21;;;;;;;;;;;;;;;11.51;74.14;97560.16;4201252;28;5813;-64
2022/03/17 11:41:23;;;;;;;;;;;;;;;11.56;74.24;97560.47;4199679;28;5836;-65
2022/03/17 11:43:24;;;;;;;;;;;;;;;11.64;74.16;97563.00;4194271;28;5788;-65
2022/03/17 11:45:28;;;;;;;;;;;;;;;11.73;74.37;97561.13;4198902;28;6471;-65
2022/03/17 11:47:36;;;;;;;;;;;;;;;11.72;74.12;97553.34;4209066;28;5735;-64
2022/03/17 11:50:18;;;;;;;;;;;;;;;11.53;74.52;97547.56;4203317;28;5797;-65
2022/03/17 11:52:20;;;;;;;;;;;;;;;11.73;74.29;97547.88;4197839;28;7341;-65
2022/03/17 11:54:21;;;;;;;;;;;;;;;11.93;73.89;97551.66;4199859;28;5758;-65
2022/03/17 11:56:38;;;;;;;;;;;;;;;11.96;73.57;97555.75;4208082;28;5706;-65
2022/03/17 11:58:47;;;;;;;;;;;;;;;11.90;73.55;97549.38;4195332;28;5676;-66
2022/03/17 12:00:53;;;;;;;;;;;;;;;12.14;73.15;97544.81;4191582;28;5817;-65
2022/03/17 12:03:05;;;;;;;;;;;;;;;12.21;73.43;97543.84;4198113;28;5726;-66
2022/03/17 12:05:12;;;;;;;;;;;;;;;12.11;72.80;97542.50;4198122;28;6870;-65
2022/03/17 12:07:17;;;;;;;;;;;;;;;12.28;73.39;97545.78;4202580;28;5693;-65
2022/03/17 12:09:30;;;;;;;;;;;;;;;12.18;73.27;97544.22;4195053;28;5788;-65
2022/03/17 12:11:42;;;;;;;;;;;;;;;12.32;73.08;97547.03;4196630;28;5731;-65
2022/03/17 12:14:18;;;;;;;;;;;;;;;12.23;72.97;97541.88;4192430;28;5753;-65
2022/03/17 12:16:39;;;;;;;;;;;;;;;12.18;73.08;97535.47;4193776;28;5937;-65
2022/03/17 12:19:02;;;;;;;;;;;;;;;12.09;74.11;97537.38;4190384;28;5749;-65
2022/03/17 12:21:04;;;;;;;;;;;;;;;12.13;73.17;97537.84;4197886;28;6376;-65
2022/03/17 12:23:49;;;;;;;;;;;;;;;12.18;74.04;97532.81;4197144;28;5869;-65
2022/03/17 12:26:05;;;;;;;;;;;;;;;12.37;73.50;97534.88;4184785;28;5786;-65
2022/03/17 12:28:08;;;;;;;;;;;;;;;12.46;73.34;97531.13;4193864;28;5716;-65
2022/03/17 12:30:12;;;;;;;;;;;;;;;12.49;72.96;97519.31;4189949;28;5844;-65
2022/03/17 12:32:20;;;;;;;;;;;;;;;11.83;74.72;97521.97;4194655;28;5936;-65
2022/03/17 12:34:23;;;;;;;;;;;;;;;12.00;74.98;97522.56;4197185;28;5758;-64
2022/03/17 12:36:24;;;;;;;;;;;;;;;11.86;75.50;97524.25;4195460;28;5785;-62
2022/03/17 12:38:26;;;;;;;;;;;;;;;12.17;74.91;97516.09;4199096;28;5714;-62
2022/03/17 12:40:35;;;;;;;;;;;;;;;12.04;74.97;97515.09;4187068;28;5715;-62
2022/03/17 12:42:39;;;;;;;;;;;;;;;12.26;74.47;97518.63;4198125;28;5697;-62
2022/03/17 12:45:11;;;;;;;;;;;;;;;12.31;74.16;97513.59;4189750;28;5736;-62
2022/03/17 12:47:13;;;;;;;;;;;;;;;12.24;74.64;97511.69;4194274;28;5829;-62
2022/03/17 12:49:15;;;;;;;;;;;;;;;12.37;74.78;97510.19;4198071;28;5705;-64
2022/03/17 12:51:18;;;;;;;;;;;;;;;12.47;73.93;97510.72;4186847;28;5711;-62
2022/03/17 12:53:20;;;;;;;;;;;;;;;12.48;74.06;97504.41;4195142;28;5719;-66
2022/03/17 12:55:22;;;;;;;;;;;;;;;12.60;73.65;97508.22;4194897;28;5698;-61
2022/03/17 12:57:26;;;;;;;;;;;;;;;12.62;73.68;97500.88;4187830;28;5690;-61
2022/03/17 12:59:29;;;;;;;;;;;;;;;12.50;74.02;97502.38;4193684;28;5707;-62
2022/03/17 13:01:30;;;;;;;;;;;;;;;12.58;73.60;97501.47;4193597;28;5714;-61
2022/03/17 13:03:32;;;;;;;;;;;;;;;12.69;73.97;97491.16;4197205;28;5713;-64
2022/03/17 13:08:11;;;;;;;;;;;;;;;12.91;73.18;97486.69;4161346;28;5824;-67
2022/03/17 13:10:16;;;;;;;;;;;;;;;12.94;73.19;97485.47;4161201;28;6463;-64
2022/03/17 13:14:40;;;;;;;;;;;;;;;13.08;72.94;97481.91;4173329;28;5098;-65
2022/03/17 13:16:42;;;;;;;;;;;;;;;13.03;73.36;97489.63;4163966;28;5712;-65
2022/03/17 13:18:45;;;;;;;;;;;;;;;13.09;73.15;97487.03;4163518;28;5770;-65
2022/03/17 13:20:52;;;;;;;;;;;;;;;13.18;72.97;97484.22;4164017;28;5681;-70
2022/03/17 13:22:56;;;;;;;;;;;;;;;13.34;72.41;97478.66;4162401;28;5768;-69
2022/03/17 13:25:02;;;;;;;;;;;;;;;13.77;67.17;97468.69;4156154;28;6494;-67
2022/03/17 13:27:05;;;;;;;;;;;;;;;14.09;65.96;97469.88;4162647;28;5842;-66
2022/03/17 13:29:07;;;;;;;;;;;;;;;14.88;59.51;97463.94;4164050;28;6509;-66
2022/03/17 13:31:09;;;;;;;;;;;;;;;14.94;59.85;97460.44;4163095;28;5871;-65
2022/03/17 13:33:16;;;;;;;;;;;;;;;15.06;58.87;97464.16;4145784;28;5178;-63
2022/03/17 13:35:18;;;;;;;;;;;;;;;15.10;59.47;97461.91;4163415;28;7729;-61
2022/03/17 13:37:21;;;;;;;;;;;;;;;15.20;58.79;97459.66;4163281;28;5705;-62
2022/03/17 13:39:32;;;;;;;;;;;;;;;15.35;58.66;97460.25;4163778;28;6401;-62
2022/03/17 13:41:33;;;;;;;;;;;;;;;15.51;59.18;97471.47;4162077;28;5811;-61
2022/03/17 13:43:37;;;;;;;;;;;;;;;15.59;56.15;97458.75;4169434;28;5723;-62
2022/03/17 13:45:41;;;;;;;;;;;;;;;15.71;54.30;97450.97;4177926;28;5910;-63
2022/03/17 13:47:44;;;;;;;;;;;;;;;15.81;54.79;97453.22;4180480;28;5135;-63
2022/03/17 13:50:08;;;;;;;;;;;;;;;16.06;53.04;97455.97;4181080;28;6520;-63
2022/03/17 13:52:10;;;;;;;;;;;;;;;15.96;54.16;97438.56;4175788;28;6408;-62
2022/03/17 13:54:13;;;;;;;;;;;;;;;15.97;53.58;97450.91;4173248;28;5850;-62
2022/03/17 13:56:17;;;;;;;;;;;;;;;16.08;53.00;97438.72;4175146;28;5833;-64
2022/03/17 13:58:21;;;;;;;;;;;;;;;16.10;53.42;97434.03;4172998;28;5972;-62
2022/03/17 14:00:23;;;;;;;;;;;;;;;16.19;52.50;97435.41;4177474;28;5737;-63
2022/03/17 14:02:27;;;;;;;;;;;;;;;16.14;52.68;97435.22;4179855;28;5970;-62
2022/03/17 14:04:28;;;;;;;;;;;;;;;16.14;53.37;97437.91;4178722;28;5829;-61
2022/03/17 14:06:34;;;;;;;;;;;;;;;16.14;52.77;97437.06;4173777;28;5732;-62
2022/03/17 14:08:39;;;;;;;;;;;;;;;16.19;53.25;97431.91;4181368;28;5723;-62
2022/03/17 14:10:41;;;;;;;;;;;;;;;16.16;53.63;97432.34;4178125;28;6196;-63
2022/03/17 14:12:42;;;;;;;;;;;;;;;16.15;54.37;97436.84;4177121;28;5747;-62
2022/03/17 14:14:45;;;;;;;;;;;;;;;16.11;54.28;97435.66;4180979;28;5723;-63
2022/03/17 14:16:47;;;;;;;;;;;;;;;16.23;53.97;97430.47;4167602;28;5798;-66
2022/03/17 14:18:50;;;;;;;;;;;;;;;16.22;54.29;97431.50;4180036;28;5810;-62
2022/03/17 14:20:52;;;;;;;;;;;;;;;16.18;53.63;97428.44;4175073;28;6215;-63
2022/03/17 14:25:14;;;;;;;;;;;;;;;16.25;54.24;97429.22;4177671;28;5727;-61
2022/03/17 14:27:15;;;;;;;;;;;;;;;16.25;53.54;97426.56;4182775;28;5827;-65
2022/03/17 14:29:18;;;;;;;;;;;;;;;16.23;52.60;97428.63;4193629;28;5789;-63
2022/03/17 14:31:19;;;;;;;;;;;;;;;16.21;54.23;97433.34;4197662;28;5765;-61
2022/03/17 14:33:21;;;;;;;;;;;;;;;16.16;53.29;97430.50;4199166;28;5713;-61
2022/03/17 14:35:23;;;;;;;;;;;;;;;16.12;54.16;97431.16;4193492;28;6460;-61
2022/03/17 14:37:25;;;;;;;;;;;;;;;16.18;54.44;97440.94;4199220;28;5705;-61
2022/03/17 14:39:29;;;;;;;;;;;;;;;16.10;54.44;97422.53;4195361;28;5761;-62
2022/03/17 14:41:31;;;;;;;;;;;;;;;16.13;54.55;97433.59;4197238;28;5727;-62
2022/03/17 14:43:33;;;;;;;;;;;;;;;16.12;54.57;97428.47;4200739;28;5789;-62
2022/03/17 14:45:35;;;;;;;;;;;;;;;16.16;55.15;97433.16;4193426;28;6233;-62
2022/03/17 14:47:37;;;;;;;;;;;;;;;16.19;56.00;97432.72;4199016;28;5713;-62
2022/03/17 14:49:38;;;;;;;;;;;;;;;16.24;54.73;97427.59;4200274;28;5792;-61
2022/03/17 14:51:41;;;;;;;;;;;;;;;16.14;53.77;97435.22;4200483;28;5690;-61
2022/03/17 14:54:03;;;;;;;;;;;;;;;16.09;54.64;97428.91;4200184;28;5868;-63
2022/03/17 14:56:09;;;;;;;;;;;;;;;16.14;54.79;97432.56;4200093;28;5900;-64
2022/03/17 14:58:11;;;;;;;;;;;;;;;16.13;54.81;97432.78;4191859;28;5856;-66
2022/03/17 15:00:14;;;;;;;;;;;;;;;16.12;55.01;97429.28;4201807;28;5726;-67
2022/03/17 15:02:17;;;;;;;;;;;;;;;16.15;54.58;97430.72;4194568;28;5694;-66
2022/03/17 15:04:19;;;;;;;;;;;;;;;16.13;54.87;97435.44;4199352;28;5776;-61
2022/03/17 15:06:23;;;;;;;;;;;;;;;16.07;53.95;97429.09;4197909;28;5701;-61
2022/03/17 15:08:25;;;;;;;;;;;;;;;16.01;54.28;97432.63;4197135;28;6412;-62
2022/03/17 15:10:26;;;;;;;;;;;;;;;16.02;54.43;97436.94;4199984;28;6364;-62
2022/03/17 15:12:28;;;;;;;;;;;;;;;16.07;54.95;97438.94;4198283;28;5735;-63
2022/03/17 15:14:30;;;;;;;;;;;;;;;16.11;55.00;97427.66;4199622;28;5884;-61
2022/03/17 15:16:32;;;;;;;;;;;;;;;16.10;55.02;97428.69;4199777;28;5698;-63
2022/03/17 15:18:34;;;;;;;;;;;;;;;16.11;55.46;97425.00;4198166;28;5760;-63
2022/03/17 15:20:36;;;;;;;;;;;;;;;16.14;54.94;97431.75;4195667;28;5702;-65
2022/03/17 15:22:38;;;;;;;;;;;;;;;16.13;54.60;97432.78;4196591;28;5705;-62
2022/03/17 15:24:43;;;;;;;;;;;;;;;16.11;55.25;97430.31;4195393;28;5800;-64
2022/03/17 15:26:45;;;;;;;;;;;;;;;16.12;55.12;97426.63;4194411;28;5796;-64
2022/03/17 15:31:07;;;;;;;;;;;;;;;16.05;55.45;97431.16;4186350;28;5727;-64
2022/03/17 15:33:09;;;;;;;;;;;;;;;16.11;54.89;97425.00;4185392;28;5794;-63
2022/03/17 15:35:12;;;;;;;;;;;;;;;16.13;54.30;97422.94;4191897;28;5724;-62
2022/03/17 15:37:14;;;;;;;;;;;;;;;16.06;54.03;97427.47;4200045;28;5177;-64
2022/03/17 15:39:15;;;;;;;;;;;;;;;16.01;54.74;97428.09;4200071;28;8494;-64
2022/03/17 15:41:17;;;;;;;;;;;;;;;16.02;54.40;97415.59;4193667;28;5889;-66
2022/03/17 15:43:19;;;;;;;;;;;;;;;16.02;54.45;97432.41;4201885;28;5784;-64
2022/03/17 15:45:21;;;;;;;;;;;;;;;16.00;54.61;97425.66;4195704;28;5651;-64
2022/03/17 15:47:23;;;;;;;;;;;;;;;15.90;54.72;97426.09;4197114;28;5819;-67
2022/03/17 15:49:25;;;;;;;;;;;;;;;15.88;55.41;97428.16;4196657;28;5690;-64
2022/03/17 15:51:27;;;;;;;;;;;;;;;15.92;55.00;97425.88;4198868;28;5635;-63
2022/03/17 15:53:29;;;;;;;;;;;;;;;15.88;55.42;97425.50;4198283;28;5785;-64
2022/03/17 15:55:31;;;;;;;;;;;;;;;15.91;55.39;97434.91;4197625;28;5719;-64
2022/03/17 15:57:33;;;;;;;;;;;;;;;15.89;55.65;97427.13;4195175;28;5783;-61
2022/03/17 15:59:35;;;;;;;;;;;;;;;15.85;56.21;97425.91;4201363;28;5682;-60
2022/03/17 16:01:37;;;;;;;;;;;;;;;15.86;56.07;97422.22;4200240;28;5718;-62
2022/03/17 16:03:43;;;;;;;;;;;;;;;15.84;56.16;97439.44;4192381;28;5869;-62
2022/03/17 16:05:45;;;;;;;;;;;;;;;15.80;56.58;97427.59;4186403;28;5643;-62
2022/03/17 16:07:47;;;;;;;;;;;;;;;15.78;56.57;97437.63;4189796;28;5865;-63
2022/03/17 16:14:30;;;;;;;;;;;;;;;15.60;57.52;97433.78;4200137;28;5776;-66
2022/03/17 16:16:32;;;;;;;;;;;;;;;15.65;57.62;97435.84;4198121;28;5694;-62
2022/03/17 16:18:34;;;;;;;;;;;;;;;15.62;57.92;97439.72;4196580;28;5715;-64
2022/03/17 16:20:36;;;;;;;;;;;;;;;15.51;58.12;97434.19;4197530;28;5709;-63
2022/03/17 16:22:41;;;;;;;;;;;;;;;15.55;58.59;97446.06;4200052;28;5793;-60
2022/03/17 16:24:43;;;;;;;;;;;;;;;15.47;58.58;97447.09;4200887;28;5761;-59
2022/03/17 16:26:45;;;;;;;;;;;;;;;15.29;59.20;97447.78;4205740;28;5747;-64
2022/03/17 16:28:47;;;;;;;;;;;;;;;15.31;59.30;97455.56;4207602;28;5967;-62
2022/03/17 16:30:49;;;;;;;;;;;;;;;15.29;59.28;97463.75;4197763;28;7744;-61
2022/03/17 16:32:51;;;;;;;;;;;;;;;15.14;59.57;97466.59;4200677;28;5698;-64
2022/03/17 16:34:53;;;;;;;;;;;;;;;15.20;59.76;97458.84;4200128;28;5778;-60
2022/03/17 16:36:54;;;;;;;;;;;;;;;15.21;59.84;97463.13;4199251;28;5867;-61
2022/03/17 16:38:58;;;;;;;;;;;;;;;15.13;60.09;97464.16;4198611;28;5927;-60
2022/03/17 16:41:01;;;;;;;;;;;;;;;15.14;60.00;97471.94;4200028;28;5789;-62
2022/03/17 16:43:02;;;;;;;;;;;;;;;15.06;60.35;97465.97;4199263;28;5689;-59
2022/03/17 16:45:05;;;;;;;;;;;;;;;15.10;60.02;97462.72;4196312;28;5722;-62
2022/03/17 16:47:07;;;;;;;;;;;;;;;15.09;60.28;97469.09;4191103;28;5705;-64
2022/03/17 16:49:10;;;;;;;;;;;;;;;15.05;60.37;97477.66;4199056;28;5793;-62
2022/03/17 16:51:12;;;;;;;;;;;;;;;15.01;60.70;97479.94;4196460;28;5701;-61
2022/03/17 16:53:13;;;;;;;;;;;;;;;14.96;60.77;97479.72;4194556;28;5875;-64
2022/03/17 16:55:15;;;;;;;;;;;;;;;14.93;60.61;97485.44;4199392;28;6388;-66
2022/03/17 16:57:17;;;;;;;;;;;;;;;14.91;60.75;97489.34;4197830;28;5803;-63
2022/03/17 16:59:22;;;;;;;;;;;;;;;14.81;60.67;97500.38;4200165;28;5873;-63
2022/03/17 17:01:24;;;;;;;;;;;;;;;14.72;60.88;97493.59;4194465;28;5757;-63
2022/03/17 17:03:28;;;;;;;;;;;;;;;14.67;61.17;97501.38;4205714;28;5705;-62
2022/03/17 17:05:30;;;;;;;;;;;;;;;14.64;61.21;97499.13;4201467;28;5871;-62
2022/03/17 17:07:37;;;;;;;;;;;;;;;14.58;61.34;97498.09;4207543;28;5779;-61
2022/03/17 17:09:38;;;;;;;;;;;;;;;14.56;61.44;97500.94;4197389;28;5673;-63
2022/03/17 17:11:41;;;;;;;;;;;;;;;14.50;61.66;97506.28;4204135;28;5661;-61
2022/03/17 17:13:46;;;;;;;;;;;;;;;14.51;61.34;97502.59;4198635;28;5812;-62
2022/03/17 17:15:47;;;;;;;;;;;;;;;14.49;61.82;97500.09;4199187;28;5783;-60
2022/03/17 17:17:49;;;;;;;;;;;;;;;14.50;61.52;97507.09;4193215;28;5742;-59
2022/03/17 17:19:51;;;;;;;;;;;;;;;14.46;61.65;97505.84;4196652;28;5711;-60
2022/03/17 17:21:55;;;;;;;;;;;;;;;14.44;61.47;97505.22;4197883;28;6516;-65
2022/03/17 17:31:01;;;;;;;;;;;;;;;14.09;62.22;97519.56;4199477;28;5683;-62
2022/03/17 17:33:04;;;;;;;;;;;;;;;14.10;62.45;97521.22;4198904;28;5709;-63
2022/03/17 17:35:07;;;;;;;;;;;;;;;13.97;62.63;97537.91;4199313;28;5703;-62
2022/03/17 17:37:08;;;;;;;;;;;;;;;13.98;62.56;97527.09;4197208;28;5699;-62
2022/03/17 17:39:10;;;;;;;;;;;;;;;14.03;62.54;97518.50;4199280;28;5789;-61
2022/03/17 17:41:12;;;;;;;;;;;;;;;13.91;62.87;97526.22;4198759;28;5710;-60
2022/03/17 17:43:15;;;;;;;;;;;;;;;13.89;63.01;97530.91;4198616;28;6714;-61
2022/03/17 17:45:17;;;;;;;;;;;;;;;13.80;62.98;97531.25;4195747;28;5694;-62
2022/03/17 17:47:20;;;;;;;;;;;;;;;13.74;63.55;97527.56;4191532;28;6492;-60
2022/03/17 17:49:22;;;;;;;;;;;;;;;13.82;63.03;97529.25;4195989;28;5702;-61